Time;durP1;ratioP1;P1;durP2;ratioP2;P2;SDS_P1;SDS_P2;PMS_P1;PMS_P2;Temp;Humidity;BMP_temperature;BMP_pressure;BME280_temperature;BME280_humidity;BME280_pressure;Samples;Min_cycle;Max_cycle;Signal;HPM_P1;HPM_P2
2022/11/25 00:00:35;;;;;;;4.03;3.73;;;;;;;10.55;56.77;99103.41;5040709;28;20552;-55
2022/11/25 00:03:02;;;;;;;3.83;3.53;;;;;;;10.54;56.66;99099.16;5032076;28;20197;-55
2022/11/25 00:05:28;;;;;;;3.77;3.47;;;;;;;10.57;56.54;99108.59;5031968;28;20659;-55
2022/11/25 00:07:55;;;;;;;4.50;4.07;;;;;;;10.60;56.48;99106.88;5031848;28;20254;-55
2022/11/25 00:10:23;;;;;;;3.90;3.60;;;;;;;10.50;56.58;99101.66;5031926;28;20219;-55
2022/11/25 00:12:50;;;;;;;3.87;3.57;;;;;;;10.59;56.55;99112.03;5031933;28;20200;-55
2022/11/25 00:15:17;;;;;;;3.50;3.20;;;;;;;10.54;56.61;99098.28;5032307;28;20217;-55
2022/11/25 00:17:44;;;;;;;3.20;2.97;;;;;;;10.50;56.81;99111.91;5031803;28;20336;-55
2022/11/25 00:20:11;;;;;;;3.70;3.37;;;;;;;10.54;56.68;99116.25;5032054;28;20196;-55
2022/11/25 00:22:38;;;;;;;3.60;3.30;;;;;;;10.51;56.94;99099.13;5032170;28;20193;-55
2022/11/25 00:25:05;;;;;;;7.50;3.43;;;;;;;10.55;56.73;99117.97;5031807;28;20655;-56
2022/11/25 00:27:33;;;;;;;4.10;3.70;;;;;;;10.53;56.70;99114.53;5031617;28;20714;-55
2022/11/25 00:30:00;;;;;;;3.80;3.50;;;;;;;10.56;56.97;99107.72;5046350;28;20219;-55
2022/11/25 00:32:27;;;;;;;3.67;3.27;;;;;;;10.55;56.60;99115.41;5051562;28;20188;-55
2022/11/25 00:34:54;;;;;;;3.60;3.30;;;;;;;10.52;56.20;99115.41;5051675;28;20725;-55
2022/11/25 00:37:20;;;;;;;3.60;3.30;;;;;;;10.48;56.67;99105.91;5051593;28;20279;-55
2022/11/25 00:39:47;;;;;;;3.60;3.30;;;;;;;10.49;56.28;99118.75;5051641;28;20202;-55
2022/11/25 00:45:00;;;;;;;3.53;3.23;;;;;;;10.48;56.77;99121.31;5051596;28;20669;-55
2022/11/25 00:47:28;;;;;;;3.80;3.50;;;;;;;10.48;56.75;99111.06;5050911;28;20427;-55
2022/11/25 00:49:55;;;;;;;3.57;3.27;;;;;;;10.46;56.44;99112.75;5051382;28;20587;-55
2022/11/25 00:52:24;;;;;;;5.40;3.50;;;;;;;10.38;56.46;99106.69;5051226;28;20658;-55
2022/11/25 00:54:51;;;;;;;6.47;3.53;;;;;;;10.54;56.12;99122.25;5051349;28;20197;-55
2022/11/25 00:57:19;;;;;;;3.83;3.43;;;;;;;10.51;56.52;99111.97;5051136;28;20654;-55
2022/11/25 00:59:47;;;;;;;3.70;3.30;;;;;;;10.47;56.16;99112.75;5051702;28;20192;-55
2022/11/25 01:02:17;;;;;;;3.70;3.30;;;;;;;10.51;56.26;99129.94;5051292;28;20188;-55
2022/11/25 01:04:44;;;;;;;3.50;3.20;;;;;;;10.60;56.45;99113.75;5051547;28;20215;-55
2022/11/25 01:07:10;;;;;;;3.50;3.20;;;;;;;10.55;55.72;99123.09;5053783;28;20196;-55
2022/11/25 01:09:37;;;;;;;4.20;3.70;;;;;;;10.56;56.02;99114.56;5054749;28;20216;-55
2022/11/25 01:12:05;;;;;;;4.20;3.90;;;;;;;10.62;55.39;99112.06;5054790;28;20192;-55
2022/11/25 01:14:32;;;;;;;3.20;3.00;;;;;;;10.18;54.50;99037.13;5055227;28;20199;-55
2022/11/25 01:16:59;;;;;;;3.60;3.30;;;;;;;10.60;54.48;99127.44;5053288;28;20192;-55
2022/11/25 01:19:27;;;;;;;3.07;2.87;;;;;;;10.53;54.62;99124.81;5054894;28;20192;-56
2022/11/25 01:21:54;;;;;;;2.97;2.77;;;;;;;10.58;54.59;99121.44;5054818;28;20694;-55
2022/11/25 01:24:21;;;;;;;2.97;2.73;;;;;;;10.54;54.92;99129.09;5054639;28;20184;-56
2022/11/25 01:26:48;;;;;;;2.80;2.60;;;;;;;10.58;54.13;99125.72;5053409;28;20857;-55
2022/11/25 01:29:17;;;;;;;3.03;2.73;;;;;;;10.51;53.91;99111.97;5054803;28;20242;-55
2022/11/25 01:31:44;;;;;;;2.90;2.70;;;;;;;10.59;53.90;99112.91;5054734;28;20250;-55
2022/11/25 01:34:14;;;;;;;2.93;2.63;;;;;;;10.66;53.59;99124.06;5054452;28;20698;-55
2022/11/25 01:36:42;;;;;;;2.57;2.37;;;;;;;10.47;53.88;99097.34;5054340;28;20667;-55
2022/11/25 01:39:16;;;;;;;5.13;2.70;;;;;;;10.54;54.31;99119.69;5054325;28;20246;-55
2022/11/25 01:41:43;;;;;;;2.97;2.77;;;;;;;10.57;54.22;99118.88;5054531;28;20665;-55
2022/11/25 01:44:12;;;;;;;2.90;2.70;;;;;;;10.44;54.43;99099.00;5054635;28;20192;-55
2022/11/25 01:46:50;;;;;;;2.80;2.60;;;;;;;10.61;54.21;99138.59;5054398;28;20643;-55
2022/11/25 01:49:20;;;;;;;2.90;2.70;;;;;;;10.61;54.28;99129.19;5054846;28;20562;-55
2022/11/25 01:51:54;;;;;;;4.17;2.93;;;;;;;10.53;54.81;99123.09;5054330;28;20188;-55
2022/11/25 01:54:26;;;;;;;3.77;3.40;;;;;;;10.49;55.09;99128.19;5054221;28;20203;-55
2022/11/25 01:56:59;;;;;;;3.67;3.20;;;;;;;10.44;55.43;99127.25;5054423;28;20242;-55
2022/11/25 01:59:27;;;;;;;3.40;3.13;;;;;;;10.45;55.61;99134.13;5054147;28;20201;-55
2022/11/25 02:01:55;;;;;;;4.40;2.97;;;;;;;10.41;55.54;99150.38;5054484;28;20193;-55
2022/11/25 02:04:28;;;;;;;5.37;3.50;;;;;;;10.41;56.01;99140.09;5053865;28;20196;-55
2022/11/25 02:07:03;;;;;;;4.83;4.37;;;;;;;10.40;55.92;99141.81;5054000;28;20200;-55
2022/11/25 02:09:30;;;;;;;4.20;3.90;;;;;;;10.37;56.08;99140.91;5053988;28;20194;-55
2022/11/25 02:11:58;;;;;;;4.67;4.13;;;;;;;10.37;56.13;99141.75;5053832;28;20210;-55
2022/11/25 02:14:26;;;;;;;4.60;4.20;;;;;;;10.37;56.21;99134.06;5054508;28;20199;-55
2022/11/25 02:16:53;;;;;;;5.00;4.33;;;;;;;10.41;56.21;99142.66;5054184;28;20227;-55
2022/11/25 02:19:24;;;;;;;4.23;3.93;;;;;;;10.44;55.82;99147.81;5052947;28;20193;-56
2022/11/25 02:21:56;;;;;;;4.83;4.43;;;;;;;10.42;56.51;99141.81;5053620;28;20233;-55
2022/11/25 02:24:31;;;;;;;5.50;5.00;;;;;;;10.44;56.52;99142.66;5053649;28;20198;-55
2022/11/25 02:26:59;;;;;;;4.93;4.53;;;;;;;10.43;56.02;99158.94;5054058;28;20188;-55
2022/11/25 02:29:27;;;;;;;4.97;4.57;;;;;;;10.47;56.36;99142.72;5053381;28;20235;-55
2022/11/25 02:31:54;;;;;;;5.97;5.47;;;;;;;10.48;56.13;99152.16;5053466;28;20223;-55
2022/11/25 02:34:21;;;;;;;5.83;5.20;;;;;;;10.44;56.11;99142.66;5053577;28;20231;-55
2022/11/25 02:36:49;;;;;;;5.10;4.60;;;;;;;10.40;56.21;99136.66;5053369;28;20200;-55
2022/11/25 02:39:17;;;;;;;4.97;4.47;;;;;;;10.43;56.11;99141.84;5053252;28;20192;-55
2022/11/25 02:41:50;;;;;;;4.40;4.10;;;;;;;10.45;55.96;99139.28;5053726;28;20532;-55
2022/11/25 02:44:19;;;;;;;4.87;4.47;;;;;;;10.41;56.01;99134.97;5053583;28;20196;-55
2022/11/25 02:46:46;;;;;;;4.70;4.33;;;;;;;9.98;55.68;99052.28;5053421;28;20192;-55
2022/11/25 02:49:12;;;;;;;5.17;3.97;;;;;;;10.49;54.96;99147.00;5053070;28;20189;-55
2022/11/25 02:51:42;;;;;;;4.03;3.63;;;;;;;10.43;55.19;99140.97;5052934;28;20694;-55
2022/11/25 02:54:09;;;;;;;4.30;3.90;;;;;;;10.36;55.60;99139.16;5053130;28;20745;-55
2022/11/25 02:56:36;;;;;;;3.97;3.67;;;;;;;10.41;55.24;99135.78;5053020;28;20200;-55
2022/11/25 02:59:04;;;;;;;3.83;3.47;;;;;;;10.36;55.46;99140.03;5052903;28;20188;-55
2022/11/25 03:01:33;;;;;;;4.43;3.50;;;;;;;10.35;55.17;99137.47;5053111;28;20202;-55
2022/11/25 03:04:01;;;;;;;4.23;3.83;;;;;;;10.43;55.16;99143.53;5052820;28;20188;-55
2022/11/25 03:06:28;;;;;;;6.27;4.00;;;;;;;10.44;54.92;99156.38;5052834;28;20193;-55
2022/11/25 03:08:55;;;;;;;4.40;3.97;;;;;;;10.42;54.68;99140.09;5052654;28;20447;-55
2022/11/25 03:12:17;;;;;;;4.93;4.50;;;;;;;10.43;54.73;99146.09;5053011;28;20323;-55
2022/11/25 03:14:08;;;;;;;4.10;3.70;;;;;;;10.44;54.91;99155.50;5052523;28;20647;-55
2022/11/25 03:16:37;;;;;;;4.23;3.90;;;;;;;10.43;55.09;99158.94;5052470;28;20192;-56
2022/11/25 03:19:04;;;;;;;4.30;3.90;;;;;;;10.45;54.88;99145.28;5052382;28;20200;-55
2022/11/25 03:21:31;;;;;;;4.23;3.90;;;;;;;10.45;54.43;99150.41;5052325;28;20199;-55
2022/11/25 03:23:58;;;;;;;4.40;4.03;;;;;;;10.44;54.73;99152.94;5052554;28;20195;-55
2022/11/25 03:26:24;;;;;;;5.43;4.10;;;;;;;10.41;54.55;99147.81;5052437;28;20187;-55
2022/11/25 03:28:51;;;;;;;4.30;4.00;;;;;;;10.48;54.76;99147.00;5052560;28;20215;-55
2022/11/25 03:31:18;;;;;;;5.20;4.13;;;;;;;10.47;54.47;99145.28;5051936;28;20270;-55
2022/11/25 03:33:46;;;;;;;4.23;3.93;;;;;;;10.50;54.40;99141.03;5052391;28;20202;-55
2022/11/25 03:36:13;;;;;;;7.07;4.47;;;;;;;10.37;54.09;99125.50;5052147;28;20681;-55
2022/11/25 03:38:40;;;;;;;4.27;3.87;;;;;;;10.51;54.31;99140.22;5052293;28;20721;-55
2022/11/25 03:41:06;;;;;;;4.17;3.77;;;;;;;10.46;54.15;99147.00;5052275;28;20736;-55
2022/11/25 03:43:34;;;;;;;4.87;4.47;;;;;;;10.47;54.36;99140.13;5052402;28;20196;-55
2022/11/25 03:46:01;;;;;;;4.37;3.93;;;;;;;10.52;54.06;99151.34;5052134;28;20203;-55
2022/11/25 03:48:28;;;;;;;4.77;4.27;;;;;;;10.53;54.05;99159.06;5052244;28;20189;-55
2022/11/25 03:50:56;;;;;;;5.37;4.30;;;;;;;10.51;54.16;99162.47;5052140;28;20220;-55
2022/11/25 03:53:23;;;;;;;4.70;4.27;;;;;;;10.51;53.94;99165.91;5052335;28;20188;-55
2022/11/25 03:55:50;;;;;;;4.70;4.30;;;;;;;10.52;54.26;99165.03;5052000;28;20192;-55
2022/11/25 03:58:16;;;;;;;4.23;3.93;;;;;;;10.56;53.96;99169.38;5052164;28;20204;-55
2022/11/25 04:00:43;;;;;;;4.17;3.80;;;;;;;10.56;53.29;99165.94;5051723;28;20193;-55
2022/11/25 04:03:10;;;;;;;3.90;3.60;;;;;;;10.54;53.27;99160.78;5051878;28;20238;-55
2022/11/25 04:05:37;;;;;;;4.30;3.90;;;;;;;10.57;53.16;99170.25;5051829;28;20650;-55
2022/11/25 04:08:06;;;;;;;4.27;3.90;;;;;;;10.57;53.22;99167.66;5058954;28;20195;-55
2022/11/25 04:10:32;;;;;;;4.00;3.70;;;;;;;10.55;53.18;99170.19;5071983;28;20223;-55
2022/11/25 04:12:58;;;;;;;4.07;3.77;;;;;;;10.56;53.05;99174.50;5070960;28;20249;-55
2022/11/25 04:15:25;;;;;;;4.40;4.00;;;;;;;10.57;52.56;99176.25;5072350;28;20596;-55
2022/11/25 04:17:52;;;;;;;4.00;3.70;;;;;;;10.59;52.86;99182.25;5071911;28;20191;-55
2022/11/25 04:20:19;;;;;;;4.07;3.77;;;;;;;10.56;53.09;99179.66;5072312;28;20566;-55
2022/11/25 04:22:46;;;;;;;3.87;3.57;;;;;;;10.57;52.75;99185.66;5062662;28;20188;-55
2022/11/25 04:25:19;;;;;;;3.83;3.53;;;;;;;10.32;53.20;99139.97;5051729;28;20192;-55
2022/11/25 04:27:46;;;;;;;7.93;3.87;;;;;;;10.52;53.10;99190.72;5035855;28;20242;-55
2022/11/25 04:30:13;;;;;;;3.97;3.63;;;;;;;10.52;53.22;99195.03;5051149;28;20210;-55
2022/11/25 04:32:40;;;;;;;4.67;3.67;;;;;;;10.53;52.96;99199.28;5051474;28;20655;-55
2022/11/25 04:35:07;;;;;;;3.80;3.50;;;;;;;10.46;53.10;99200.06;5035866;28;20848;-56
2022/11/25 04:37:34;;;;;;;4.40;4.00;;;;;;;10.46;53.23;99200.94;5031720;28;20189;-55
2022/11/25 04:40:00;;;;;;;4.23;3.93;;;;;;;10.51;53.59;99207.00;5031667;28;20193;-56
2022/11/25 04:42:32;;;;;;;4.20;3.83;;;;;;;10.50;53.44;99206.97;5034424;28;20200;-55
2022/11/25 04:44:59;;;;;;;4.73;4.23;;;;;;;10.47;53.74;99196.66;5036311;28;20283;-55
2022/11/25 04:47:26;;;;;;;4.23;3.90;;;;;;;10.38;54.25;99202.53;5035916;28;20193;-55
2022/11/25 04:49:53;;;;;;;4.50;4.10;;;;;;;10.43;54.06;99212.88;5035562;28;20193;-55
2022/11/25 04:52:19;;;;;;;5.05;4.38;;;;;;;10.45;53.77;99199.22;5035117;28;20437;-55
2022/11/25 04:54:46;;;;;;;5.17;4.40;;;;;;;10.44;54.26;99217.16;5035427;28;20200;-55
2022/11/25 04:57:14;;;;;;;4.50;4.10;;;;;;;10.42;54.39;99203.44;5043999;28;20262;-55
2022/11/25 04:59:42;;;;;;;4.60;4.20;;;;;;;10.26;54.24;99186.13;5054944;28;20283;-55
2022/11/25 05:02:14;;;;;;;5.73;4.00;;;;;;;10.39;54.10;99211.97;5055013;28;20196;-55
2022/11/25 05:04:41;;;;;;;3.83;3.53;;;;;;;10.37;54.24;99205.97;5054647;28;20279;-56
2022/11/25 05:07:09;;;;;;;3.97;3.67;;;;;;;10.40;54.33;99217.97;5053979;28;20192;-55
2022/11/25 05:09:36;;;;;;;4.40;4.00;;;;;;;10.40;54.36;99228.25;5035079;28;20646;-55
2022/11/25 05:12:03;;;;;;;4.37;3.97;;;;;;;10.42;54.45;99234.25;5052504;28;20230;-55
2022/11/25 05:14:30;;;;;;;4.77;3.90;;;;;;;10.35;54.61;99233.34;5064113;28;20207;-55
2022/11/25 05:16:58;;;;;;;8.00;4.57;;;;;;;10.35;54.52;99235.91;5059695;28;20196;-55
2022/11/25 05:19:25;;;;;;;7.63;4.60;;;;;;;10.34;54.71;99241.88;5054775;28;20201;-55
2022/11/25 05:21:52;;;;;;;4.70;4.30;;;;;;;10.43;54.45;99248.84;5054758;28;20192;-55
2022/11/25 05:24:19;;;;;;;5.73;3.93;;;;;;;10.43;53.56;99251.41;5052555;28;20188;-55
2022/11/25 05:26:45;;;;;;;3.73;3.43;;;;;;;10.43;53.60;99253.97;5054241;28;20188;-56
2022/11/25 05:29:12;;;;;;;4.03;3.63;;;;;;;10.41;53.12;99245.38;5053870;28;20225;-56
2022/11/25 05:31:39;;;;;;;3.80;3.50;;;;;;;10.47;52.86;99250.59;5053338;28;20326;-55
2022/11/25 05:34:07;;;;;;;6.00;3.77;;;;;;;10.45;52.74;99252.28;5052881;28;20231;-55
2022/11/25 05:36:34;;;;;;;4.10;3.80;;;;;;;10.49;52.82;99260.03;5053953;28;20594;-56
2022/11/25 05:39:01;;;;;;;4.03;3.73;;;;;;;10.45;53.25;99257.41;5058428;28;20749;-55
2022/11/25 05:41:28;;;;;;;4.60;3.60;;;;;;;10.50;53.14;99277.19;5056589;28;20619;-55
2022/11/25 05:44:00;;;;;;;4.77;3.83;;;;;;;10.52;52.82;99279.78;5054193;28;20200;-55
2022/11/25 05:46:26;;;;;;;9.70;3.80;;;;;;;10.55;53.17;99274.66;5043353;28;20607;-55
2022/11/25 05:48:54;;;;;;;4.13;3.60;;;;;;;10.55;53.04;99284.94;5034241;28;20185;-55
2022/11/25 05:51:23;;;;;;;4.57;3.90;;;;;;;10.51;53.73;99283.19;5034163;28;20213;-56
2022/11/25 05:53:51;;;;;;;3.57;3.27;;;;;;;10.53;53.50;99302.91;5032704;28;20191;-55
2022/11/25 05:56:17;;;;;;;5.47;3.53;;;;;;;10.54;53.52;99312.34;5035023;28;20208;-55
2022/11/25 05:58:44;;;;;;;4.70;4.20;;;;;;;10.50;53.77;99302.00;5052846;28;20439;-55
2022/11/25 06:01:14;;;;;;;4.00;3.43;;;;;;;10.50;53.73;99286.59;5053805;28;20196;-54
2022/11/25 06:03:42;;;;;;;3.67;3.37;;;;;;;10.63;53.72;99317.59;5053835;28;20202;-55
2022/11/25 06:06:10;;;;;;;4.40;3.80;;;;;;;10.63;53.95;99312.44;5053813;28;20226;-55
2022/11/25 06:08:39;;;;;;;3.93;3.30;;;;;;;10.62;54.11;99320.16;5065193;28;20249;-55
2022/11/25 06:11:07;;;;;;;5.93;3.97;;;;;;;10.49;54.09;99300.28;5072561;28;20495;-55
2022/11/25 06:13:34;;;;;;;3.90;3.47;;;;;;;10.68;53.94;99327.06;5073764;28;20727;-55
2022/11/25 06:16:06;;;;;;;4.13;3.77;;;;;;;10.06;54.13;99220.06;5073990;28;20199;-54
2022/11/25 06:18:33;;;;;;;9.43;3.53;;;;;;;10.74;54.21;99327.16;5073400;28;20253;-55
2022/11/25 06:21:00;;;;;;;3.80;3.30;;;;;;;10.70;53.99;99335.66;5073674;28;20219;-55
2022/11/25 06:23:26;;;;;;;4.30;3.90;;;;;;;10.67;54.13;99341.63;5073189;28;20735;-55
2022/11/25 06:25:55;;;;;;;4.47;3.60;;;;;;;10.68;54.42;99333.09;5073454;28;20191;-55
2022/11/25 06:28:21;;;;;;;3.77;3.47;;;;;;;10.63;54.67;99355.25;5073280;28;20654;-54
2022/11/25 06:30:48;;;;;;;4.40;3.87;;;;;;;10.58;54.25;99344.06;5073208;28;20195;-54
2022/11/25 06:33:15;;;;;;;3.87;3.53;;;;;;;10.70;54.18;99354.50;5073244;28;20188;-55
2022/11/25 06:35:42;;;;;;;3.37;3.07;;;;;;;10.75;54.03;99362.28;5073843;28;20226;-55
2022/11/25 06:38:09;;;;;;;3.33;3.03;;;;;;;10.72;53.86;99377.66;5073090;28;20187;-55
2022/11/25 06:40:35;;;;;;;4.00;3.33;;;;;;;10.72;54.34;99373.38;5072818;28;20566;-54
2022/11/25 06:43:05;;;;;;;4.37;3.33;;;;;;;10.72;53.99;99390.50;5073342;28;20191;-55
2022/11/25 06:45:32;;;;;;;4.03;3.63;;;;;;;10.68;54.25;99382.72;5072979;28;20195;-54
2022/11/25 06:47:59;;;;;;;4.20;3.30;;;;;;;10.76;54.39;99384.56;5072737;28;20654;-55
2022/11/25 06:50:26;;;;;;;3.87;3.50;;;;;;;10.76;54.03;99382.88;5072680;28;20188;-55
2022/11/25 06:52:52;;;;;;;3.70;3.40;;;;;;;10.74;53.82;99375.97;5073211;28;20371;-55
2022/11/25 06:55:19;;;;;;;4.57;3.23;;;;;;;10.65;54.01;99369.00;5072867;28;20188;-54
2022/11/25 06:57:46;;;;;;;3.60;3.30;;;;;;;10.72;54.02;99390.50;5072829;28;20184;-55
2022/11/25 07:00:15;;;;;;;3.83;2.83;;;;;;;10.81;53.55;99396.63;5072684;28;20188;-55
2022/11/25 07:02:42;;;;;;;4.57;3.40;;;;;;;10.85;53.20;99397.56;5064245;28;20188;-55
2022/11/25 07:05:09;;;;;;;4.20;3.27;;;;;;;10.87;52.92;99401.88;5052131;28;20265;-55
2022/11/25 07:07:36;;;;;;;5.27;3.37;;;;;;;10.78;53.47;99406.88;5052352;28;20188;-55
2022/11/25 07:10:03;;;;;;;3.47;3.10;;;;;;;10.76;53.17;99416.28;5051063;28;20196;-55
2022/11/25 07:12:30;;;;;;;4.50;3.60;;;;;;;10.79;53.52;99407.75;5051867;28;20220;-55
2022/11/25 07:14:57;;;;;;;3.80;3.33;;;;;;;10.80;54.05;99414.59;5052305;28;20196;-55
2022/11/25 07:17:25;;;;;;;5.17;3.60;;;;;;;10.76;54.09;99420.53;5052151;28;20670;-55
2022/11/25 07:19:52;;;;;;;3.90;3.60;;;;;;;10.82;54.12;99426.66;5052176;28;20544;-55
2022/11/25 07:22:19;;;;;;;3.73;3.43;;;;;;;10.78;53.94;99432.56;5052481;28;20248;-55
2022/11/25 07:24:45;;;;;;;5.33;3.37;;;;;;;10.79;54.02;99425.72;5072471;28;20188;-55
2022/11/25 07:27:12;;;;;;;3.03;2.83;;;;;;;10.83;54.16;99417.19;5061319;28;20196;-55
2022/11/25 07:29:39;;;;;;;5.40;3.07;;;;;;;10.84;53.94;99426.66;5051876;28;20208;-55
2022/11/25 07:32:06;;;;;;;4.50;3.10;;;;;;;10.88;53.95;99430.97;5042053;28;20560;-55
2022/11/25 07:34:34;;;;;;;3.80;3.40;;;;;;;10.64;54.26;99401.53;5033065;28;20224;-55
2022/11/25 07:37:01;;;;;;;5.03;3.37;;;;;;;10.85;53.79;99438.66;5052008;28;20195;-55
2022/11/25 07:39:28;;;;;;;8.00;3.47;;;;;;;10.92;53.83;99441.34;5051338;28;20435;-55
2022/11/25 07:41:55;;;;;;;3.57;3.27;;;;;;;10.97;53.29;99447.41;5051968;28;20196;-55
2022/11/25 07:44:21;;;;;;;2.80;2.60;;;;;;;10.85;53.80;99441.25;5051699;28;20203;-55
2022/11/25 07:46:50;;;;;;;3.73;3.10;;;;;;;10.91;54.06;99439.59;5051518;28;20716;-55
2022/11/25 07:49:18;;;;;;;6.47;3.13;;;;;;;10.97;53.14;99457.69;5051975;28;20212;-55
2022/11/25 07:51:52;;;;;;;3.17;2.90;;;;;;;10.94;53.12;99438.78;5051526;28;20227;-55
2022/11/25 07:54:19;;;;;;;4.93;3.77;;;;;;;11.02;53.11;99450.91;5051948;28;20257;-55
2022/11/25 07:56:47;;;;;;;15.20;3.50;;;;;;;11.16;52.81;99457.09;5049430;28;20196;-55
2022/11/25 07:59:15;;;;;;;3.20;3.00;;;;;;;11.18;53.14;99460.53;5051124;28;20199;-56
2022/11/25 08:01:43;;;;;;;3.57;3.20;;;;;;;11.23;52.33;99447.75;5051332;28;20200;-56
2022/11/25 08:04:11;;;;;;;4.93;3.80;;;;;;;11.19;52.56;99461.41;5065874;28;20200;-56
2022/11/25 08:06:41;;;;;;;3.50;3.20;;;;;;;11.17;52.54;99466.53;5069913;28;20336;-56
2022/11/25 08:09:11;;;;;;;3.53;3.30;;;;;;;10.94;52.79;99447.34;5071702;28;20187;-56
2022/11/25 08:11:38;;;;;;;3.23;2.93;;;;;;;11.06;52.30;99475.81;5071639;28;20219;-57
2022/11/25 08:14:06;;;;;;;3.77;3.30;;;;;;;11.00;52.77;99475.72;5054642;28;20198;-56
2022/11/25 08:16:33;;;;;;;4.00;3.00;;;;;;;10.98;52.81;99477.41;5061500;28;20688;-58
2022/11/25 08:19:01;;;;;;;5.63;3.60;;;;;;;10.88;52.82;99461.81;5055510;28;20203;-57
2022/11/25 08:21:28;;;;;;;3.70;3.40;;;;;;;10.94;52.59;99483.34;5055328;28;20548;-57
2022/11/25 08:23:55;;;;;;;3.60;3.23;;;;;;;10.95;52.26;99489.34;5055245;28;20227;-57
2022/11/25 08:26:28;;;;;;;3.70;3.40;;;;;;;10.96;52.55;99476.50;5055403;28;20677;-56
2022/11/25 08:28:57;;;;;;;4.23;3.50;;;;;;;11.02;51.96;99479.19;5055515;28;20283;-56
2022/11/25 08:31:26;;;;;;;5.30;3.60;;;;;;;11.10;51.70;99480.16;5054601;28;20562;-57
2022/11/25 08:33:53;;;;;;;3.23;2.90;;;;;;;11.30;51.43;99472.69;5052992;28;20220;-58
2022/11/25 08:36:20;;;;;;;3.53;3.07;;;;;;;11.44;50.48;99473.75;5070703;28;20191;-56
2022/11/25 08:38:49;;;;;;;4.63;2.90;;;;;;;11.49;49.42;99472.09;5075297;28;20187;-57
2022/11/25 08:41:19;;;;;;;4.53;3.10;;;;;;;11.68;50.07;99475.72;5075370;28;20217;-56
2022/11/25 08:43:47;;;;;;;3.07;2.77;;;;;;;11.73;48.38;99453.50;5075919;28;20188;-56
2022/11/25 08:46:18;;;;;;;2.73;2.53;;;;;;;11.86;46.76;99469.97;5074882;28;20211;-56
2022/11/25 08:48:45;;;;;;;3.50;2.70;;;;;;;11.87;47.20;99476.84;5074976;28;20187;-57
2022/11/25 08:51:15;;;;;;;3.37;2.90;;;;;;;11.90;46.46;99479.44;5074871;28;20527;-56
2022/11/25 08:53:42;;;;;;;3.40;2.70;;;;;;;11.87;46.45;99484.56;5070014;28;20694;-56
2022/11/25 08:56:09;;;;;;;4.73;2.90;;;;;;;11.87;46.48;99471.72;5054898;28;20215;-56
2022/11/25 08:58:37;;;;;;;5.87;2.47;;;;;;;11.91;45.84;99487.19;5055094;28;20200;-56
2022/11/25 09:01:07;;;;;;;4.07;3.47;;;;;;;12.00;46.09;99477.00;5054975;28;20191;-56
2022/11/25 09:03:34;;;;;;;3.50;3.20;;;;;;;12.17;45.28;99482.28;5054077;28;20196;-57
2022/11/25 09:06:02;;;;;;;2.97;2.60;;;;;;;12.20;44.64;99472.00;5052888;28;20271;-57
2022/11/25 09:08:30;;;;;;;3.22;2.67;;;;;;;12.21;44.77;99476.31;5051467;28;20450;-56
2022/11/25 09:10:57;;;;;;;3.23;2.90;;;;;;;12.40;44.64;99468.78;5054014;28;20184;-56
2022/11/25 09:13:23;;;;;;;4.53;3.80;;;;;;;12.46;44.19;99477.41;5051731;28;20213;-57
2022/11/25 09:15:50;;;;;;;3.80;2.70;;;;;;;12.64;44.46;99467.22;5053816;28;20192;-56
2022/11/25 09:18:19;;;;;;;2.97;2.77;;;;;;;12.79;43.42;99465.66;5053944;28;20767;-57
2022/11/25 09:20:47;;;;;;;4.38;3.17;;;;;;;12.86;42.78;99469.09;5053132;28;20446;-55
2022/11/25 09:23:14;;;;;;;4.17;3.17;;;;;;;12.80;42.62;99479.41;5056240;28;20201;-55
2022/11/25 09:25:41;;;;;;;3.07;2.77;;;;;;;12.74;42.21;99484.50;5054333;28;20674;-56
2022/11/25 09:28:07;;;;;;;3.40;3.10;;;;;;;12.73;42.47;99472.47;5054308;28;20275;-56
2022/11/25 09:30:34;;;;;;;4.87;2.70;;;;;;;12.62;41.99;99474.09;5054223;28;20191;-56
2022/11/25 09:33:01;;;;;;;2.67;2.47;;;;;;;12.58;41.67;99478.34;5051555;28;20229;-57
2022/11/25 09:35:29;;;;;;;2.67;2.40;;;;;;;12.56;42.05;99486.94;5050839;28;20591;-56
2022/11/25 09:37:57;;;;;;;2.67;2.47;;;;;;;12.46;42.13;99475.69;5051797;28;20203;-56
2022/11/25 09:40:33;;;;;;;4.30;2.87;;;;;;;12.64;41.63;99485.28;5050396;28;20211;-57
2022/11/25 09:48:58;;;;;;;2.83;2.30;;;;;;;12.76;40.99;99487.94;5052145;28;20241;-56
2022/11/25 09:51:33;;;;;;;2.93;2.50;;;;;;;12.84;41.50;99475.97;5050313;28;20236;-57
2022/11/25 09:54:10;;;;;;;4.90;2.77;;;;;;;12.87;41.65;99482.03;5050829;28;20301;-56
2022/11/25 09:56:42;;;;;;;2.88;2.50;;;;;;;12.92;41.07;99471.72;5052685;28;20410;-57
2022/11/25 09:59:17;;;;;;;4.07;2.75;;;;;;;12.96;40.85;99474.31;5053223;28;20092;-56
2022/11/25 10:01:49;;;;;;;2.97;2.77;;;;;;;13.11;40.77;99470.16;5051489;28;20184;-56
2022/11/25 10:04:22;;;;;;;3.27;2.70;;;;;;;13.13;40.74;99453.81;5050701;28;20177;-57
2022/11/25 10:06:55;;;;;;;4.30;2.33;;;;;;;13.21;39.88;99465.03;5053380;28;20196;-56
2022/11/25 10:09:25;;;;;;;3.60;2.43;;;;;;;12.51;40.00;99336.56;5051156;28;20189;-55
2022/11/25 10:11:53;;;;;;;2.37;2.17;;;;;;;13.38;39.52;99465.13;5052425;28;20189;-56
2022/11/25 10:14:30;;;;;;;2.75;2.40;;;;;;;13.44;39.21;99445.38;5047735;28;20513;-57
2022/11/25 10:17:05;;;;;;;2.83;2.53;;;;;;;13.57;38.50;99444.56;5050433;28;20197;-54
2022/11/25 10:19:42;;;;;;;2.63;2.43;;;;;;;13.61;38.72;99442.88;5052961;28;20195;-55
2022/11/25 10:22:21;;;;;;;2.53;2.33;;;;;;;13.51;38.61;99446.28;5051620;28;20195;-56
2022/11/25 10:24:49;;;;;;;2.50;2.30;;;;;;;13.40;38.24;99420.44;5059830;28;20577;-55
2022/11/25 10:27:21;;;;;;;2.20;2.10;;;;;;;13.35;38.51;99445.34;5070374;28;20253;-55
2022/11/25 10:29:58;;;;;;;2.43;2.00;;;;;;;13.30;38.47;99465.09;5051463;28;20196;-54
2022/11/25 10:32:28;;;;;;;2.40;2.20;;;;;;;13.25;39.10;99442.72;5051323;28;20269;-54
2022/11/25 10:35:00;;;;;;;3.57;2.50;;;;;;;13.38;38.68;99441.91;5049544;28;20239;-56
2022/11/25 10:37:34;;;;;;;3.07;2.60;;;;;;;13.51;38.70;99451.44;5052240;28;20189;-54
2022/11/25 10:40:01;;;;;;;3.07;2.30;;;;;;;13.58;38.52;99441.13;5049518;28;20203;-56
2022/11/25 10:42:31;;;;;;;2.87;2.20;;;;;;;13.54;38.28;99430.81;5052219;28;20268;-56
2022/11/25 10:44:58;;;;;;;2.42;2.22;;;;;;;13.46;38.31;99438.50;5050870;28;20551;-55
2022/11/25 10:47:35;;;;;;;3.53;2.20;;;;;;;13.56;38.40;99471.25;5054618;28;20199;-55
2022/11/25 10:50:15;;;;;;;3.90;2.53;;;;;;;13.44;38.29;99454.84;5054380;28;20249;-54
2022/11/25 10:52:50;;;;;;;2.88;2.63;;;;;;;13.49;38.71;99430.78;5051775;28;20451;-55
2022/11/25 10:55:19;;;;;;;2.60;2.40;;;;;;;13.72;38.38;99440.31;5052649;28;20190;-55
2022/11/25 10:57:46;;;;;;;2.93;2.63;;;;;;;13.82;38.61;99457.53;5052450;28;20303;-54
2022/11/25 11:00:32;;;;;;;2.50;2.30;;;;;;;13.65;38.66;99448.91;5052565;28;20192;-55
2022/11/25 11:03:11;;;;;;;3.00;2.43;;;;;;;13.64;38.47;99452.34;5052113;28;20196;-55
2022/11/25 11:05:45;;;;;;;2.27;2.10;;;;;;;13.74;38.86;99454.06;5052160;28;20187;-55
2022/11/25 11:08:22;;;;;;;2.53;2.33;;;;;;;13.71;38.37;99465.25;5052662;28;20186;-55
2022/11/25 11:11:15;;;;;;;2.40;2.20;;;;;;;13.70;38.40;99458.38;5049185;28;20188;-55
2022/11/25 11:13:42;;;;;;;2.40;2.17;;;;;;;13.78;38.54;99450.66;5035239;28;20208;-56
2022/11/25 11:16:25;;;;;;;6.27;2.43;;;;;;;13.80;38.93;99454.97;5051692;28;20193;-55
2022/11/25 11:18:52;;;;;;;4.87;2.20;;;;;;;13.88;38.27;99452.41;5032369;28;20193;-55
2022/11/25 11:21:25;;;;;;;4.93;2.30;;;;;;;13.87;38.59;99453.28;5032245;28;20200;-55
2022/11/25 11:23:55;;;;;;;2.70;2.50;;;;;;;13.89;38.29;99448.97;5033174;28;20198;-54
2022/11/25 11:26:24;;;;;;;2.77;2.57;;;;;;;13.77;38.44;99449.78;5033601;28;20197;-55
2022/11/25 11:28:59;;;;;;;3.00;2.70;;;;;;;13.78;38.76;99451.53;5032878;28;20212;-57
2022/11/25 11:31:31;;;;;;;2.70;2.50;;;;;;;13.83;38.79;99448.94;5070718;28;20200;-55
2022/11/25 11:34:03;;;;;;;2.57;2.37;;;;;;;13.87;38.94;99451.53;5071591;28;20238;-56
2022/11/25 11:36:40;;;;;;;2.67;2.47;;;;;;;13.84;38.63;99451.56;5071235;28;20220;-56
2022/11/25 11:39:38;;;;;;;2.70;2.50;;;;;;;13.87;38.54;99459.28;5072272;28;20188;-56
2022/11/25 11:42:16;;;;;;;2.50;2.30;;;;;;;13.77;38.52;99443.75;5061039;28;20860;-56
2022/11/25 11:44:58;;;;;;;4.30;2.77;;;;;;;13.84;38.68;99448.97;5071709;28;20192;-56
2022/11/25 11:47:37;;;;;;;3.07;2.87;;;;;;;13.95;38.41;99472.22;5071282;28;20195;-56
2022/11/25 11:50:25;;;;;;;5.27;2.60;;;;;;;13.87;38.70;99455.84;5071837;28;20187;-56